KRAP/RAP METAR and TAF weather

Enter ICAO airport designator
Station Type Date Time Source
KRAP METAR 2021/05/11 21:52 UTC NOAA

KRAP 112152Z 17009KT 10SM OVC080 14/M03 A3022 RMK AO2 SLP244 T01391028


Station Type Date Time Source
KRAP Decoded METAR 2021/05/11 21:52 UTC NOAA

RAPID CITY REGIONAL AIRPORT , SD, United States (KRAP) 44-03N 103-03W 965M
May 11, 2021 - 05:52 PM EDT / 2021.05.11 2152 UTC
Wind: from the S (170 degrees) at 10 MPH (9 KT):0
Visibility: 10 mile(s):0
Sky conditions: overcast
Temperature: 57.0 F (13.9 C)
Dew Point: 27.0 F (-2.8 C)
Relative Humidity: 31%
Pressure (altimeter): 30.22 in. Hg (1023 hPa)
ob: KRAP 112152Z 17009KT 10SM OVC080 14/M03 A3022 RMK AO2 SLP244 T01391028
cycle: 22

Station Type Date Time Source
KRAP TAF 2021/05/11 18:21 UTC NOAA

TAF KRAP 111720Z 1118/1218 16010KT P6SM SCT050 BKN120
FM120200 12007KT P6SM SCT120

Example: see airport list